createdAt,value
2022-11-05T00:01:08.727Z,9.78
2022-11-05T00:03:58.306Z,9.77
2022-11-05T00:06:45.261Z,9.74
2022-11-05T00:09:31.926Z,9.66
2022-11-05T00:12:25.324Z,9.69
2022-11-05T00:15:11.710Z,9.66
2022-11-05T00:17:40.576Z,9.69
2022-11-05T00:20:11.994Z,9.63
2022-11-05T00:23:00.267Z,9.68
2022-11-05T00:25:30.138Z,9.68
2022-11-05T00:28:01.253Z,9.63
2022-11-05T00:30:29.627Z,9.59
2022-11-05T00:33:03.319Z,9.64
2022-11-05T00:35:32.064Z,9.71
2022-11-05T00:38:00.036Z,9.75
2022-11-05T00:40:27.348Z,9.70
2022-11-05T00:43:14.769Z,9.60
2022-11-05T00:45:42.074Z,9.59
2022-11-05T00:48:27.876Z,9.71
2022-11-05T00:50:57.673Z,9.72
2022-11-05T00:53:27.180Z,9.62
2022-11-05T00:55:57.103Z,9.60
2022-11-05T00:58:24.855Z,9.60
2022-11-05T01:00:55.088Z,9.56
2022-11-05T01:03:28.741Z,9.68
2022-11-05T01:06:16.760Z,9.63
2022-11-05T01:08:46.211Z,9.57
2022-11-05T01:11:33.749Z,9.59
2022-11-05T01:14:09.335Z,9.58
2022-11-05T01:16:39.366Z,9.62
2022-11-05T01:19:10.527Z,9.59
2022-11-05T01:21:39.478Z,9.58
2022-11-05T01:24:08.669Z,9.55
2022-11-05T01:26:36.076Z,9.51
2022-11-05T01:29:04.780Z,9.53
2022-11-05T01:31:33.555Z,9.56
2022-11-05T01:34:02.880Z,9.61
2022-11-05T01:36:30.180Z,9.53
2022-11-05T01:38:58.818Z,9.39
2022-11-05T01:41:26.144Z,9.44
2022-11-05T01:43:55.993Z,9.51
2022-11-05T01:46:37.667Z,9.53
2022-11-05T01:49:21.114Z,9.50
2022-11-05T01:51:49.533Z,9.46
2022-11-05T01:54:19.311Z,9.54
2022-11-05T01:56:51.757Z,9.50
2022-11-05T01:59:35.370Z,9.50
2022-11-05T02:02:03.393Z,9.55
2022-11-05T02:04:38.081Z,9.48
2022-11-05T02:07:06.589Z,9.50
2022-11-05T02:09:58.900Z,9.39
2022-11-05T02:12:35.417Z,9.40
2022-11-05T02:15:04.004Z,9.45
2022-11-05T02:17:42.930Z,9.45
2022-11-05T02:20:55.717Z,9.49
2022-11-05T02:23:48.194Z,9.49
2022-11-05T02:26:56.631Z,9.42
2022-11-05T02:30:26.439Z,9.37
2022-11-05T02:32:56.423Z,9.42
2022-11-05T02:35:57.146Z,9.45
2022-11-05T02:38:40.420Z,9.57
2022-11-05T02:41:18.962Z,9.60
2022-11-05T02:44:04.285Z,9.73
2022-11-05T02:47:18.271Z,9.55
2022-11-05T02:50:19.118Z,9.40
2022-11-05T02:53:02.117Z,9.41
2022-11-05T02:55:37.966Z,9.45
2022-11-05T02:58:07.090Z,9.39
2022-11-05T03:00:41.019Z,9.41
2022-11-05T03:03:21.470Z,9.45
2022-11-05T03:06:00.940Z,9.32
2022-11-05T03:09:12.445Z,9.33
2022-11-05T03:12:05.463Z,9.35
2022-11-05T03:14:45.605Z,9.50
2022-11-05T03:17:43.422Z,9.45
2022-11-05T03:20:24.762Z,9.41
2022-11-05T03:22:57.006Z,9.24
2022-11-05T03:25:25.851Z,9.33
2022-11-05T03:27:59.389Z,9.32
2022-11-05T03:30:26.454Z,9.41
2022-11-05T03:33:02.654Z,9.45
2022-11-05T03:35:33.375Z,9.50
2022-11-05T03:38:04.799Z,9.46
2022-11-05T03:40:36.575Z,9.50
2022-11-05T03:43:08.603Z,9.59
2022-11-05T03:45:44.984Z,9.48
2022-11-05T03:48:15.980Z,9.50
2022-11-05T03:50:50.310Z,9.47
2022-11-05T03:53:34.331Z,9.54
2022-11-05T03:56:31.243Z,9.52
2022-11-05T03:59:06.621Z,9.60
2022-11-05T04:01:37.563Z,9.46
2022-11-05T04:04:10.307Z,9.52
2022-11-05T04:06:58.100Z,9.53
2022-11-05T04:09:43.759Z,9.54
2022-11-05T04:12:30.402Z,9.53
2022-11-05T04:14:57.442Z,9.59
2022-11-05T04:17:26.679Z,9.58
2022-11-05T04:20:13.492Z,9.59
2022-11-05T04:23:02.098Z,9.58
2022-11-05T04:25:32.776Z,9.56
2022-11-05T04:28:02.234Z,9.48
2022-11-05T04:30:31.943Z,9.55
2022-11-05T04:33:16.274Z,9.61
2022-11-05T04:35:48.522Z,9.56
2022-11-05T04:38:18.709Z,9.54
2022-11-05T04:40:48.253Z,9.62
2022-11-05T04:43:19.667Z,9.62
2022-11-05T04:45:49.128Z,9.62
2022-11-05T04:48:16.695Z,9.58
2022-11-05T04:50:45.105Z,9.63
2022-11-05T04:53:13.304Z,9.66
2022-11-05T04:55:40.964Z,9.61
2022-11-05T04:58:12.304Z,9.58
2022-11-05T05:00:41.149Z,9.61
2022-11-05T05:03:11.261Z,9.61
2022-11-05T05:05:41.346Z,9.51
2022-11-05T05:08:09.081Z,9.49
2022-11-05T05:10:39.863Z,9.58
2022-11-05T05:13:11.973Z,9.60
2022-11-05T05:15:43.683Z,9.59
2022-11-05T05:18:12.299Z,9.59
2022-11-05T05:21:02.209Z,9.58
2022-11-05T05:23:32.338Z,9.48
2022-11-05T05:26:02.421Z,9.43
2022-11-05T05:28:29.918Z,9.53
2022-11-05T05:31:01.545Z,9.54
2022-11-05T05:33:29.686Z,9.53
2022-11-05T05:36:00.533Z,9.44
2022-11-05T05:38:28.891Z,9.51
2022-11-05T05:41:01.344Z,9.52
2022-11-05T05:43:37.035Z,9.49
2022-11-05T05:46:11.719Z,9.45
2022-11-05T05:48:41.126Z,9.41
2022-11-05T05:51:12.152Z,9.46
2022-11-05T05:53:40.807Z,9.30
2022-11-05T05:56:10.102Z,9.28
2022-11-05T05:58:43.158Z,9.20
2022-11-05T06:01:18.855Z,9.25
2022-11-05T06:03:50.023Z,9.19
2022-11-05T06:06:22.084Z,9.09
2022-11-05T06:08:50.673Z,8.99
2022-11-05T06:11:19.844Z,8.99
2022-11-05T06:13:46.981Z,8.93
2022-11-05T06:16:14.247Z,8.99
2022-11-05T06:18:41.971Z,9.03
2022-11-05T06:21:12.691Z,8.90
2022-11-05T06:23:41.329Z,8.96
2022-11-05T06:26:15.085Z,9.09
2022-11-05T06:28:43.523Z,8.96
2022-11-05T06:31:11.953Z,9.00
2022-11-05T06:33:40.475Z,8.96
2022-11-05T06:36:08.945Z,9.01
2022-11-05T06:38:37.497Z,9.08
2022-11-05T06:41:10.594Z,9.15
2022-11-05T06:43:42.005Z,9.20
2022-11-05T06:46:11.064Z,9.19
2022-11-05T06:48:40.590Z,9.02
2022-11-05T06:51:11.180Z,8.84
2022-11-05T06:53:40.412Z,8.96
2022-11-05T06:56:09.272Z,9.02
2022-11-05T06:58:37.316Z,9.06
2022-11-05T07:01:09.263Z,9.12
2022-11-05T07:03:37.921Z,9.19
2022-11-05T07:06:05.616Z,9.29
2022-11-05T07:08:35.636Z,9.27
2022-11-05T07:11:04.187Z,9.32
2022-11-05T07:13:35.346Z,9.34
2022-11-05T07:16:04.246Z,9.30
2022-11-05T07:18:34.226Z,9.35
2022-11-05T07:21:02.873Z,9.35
2022-11-05T07:23:31.707Z,9.35
2022-11-05T07:26:00.605Z,9.31
2022-11-05T07:28:27.791Z,9.37
2022-11-05T07:30:55.379Z,9.39
2022-11-05T07:33:26.830Z,9.52
2022-11-05T07:35:57.499Z,9.62
2022-11-05T07:38:27.842Z,9.65
2022-11-05T07:40:59.756Z,9.64
2022-11-05T07:43:28.408Z,9.70
2022-11-05T07:45:58.028Z,9.81
2022-11-05T07:48:25.834Z,9.80
2022-11-05T07:50:53.699Z,9.76
2022-11-05T07:53:23.967Z,9.80
2022-11-05T07:55:53.288Z,9.81
2022-11-05T07:58:20.477Z,9.84
2022-11-05T08:00:50.164Z,9.86
2022-11-05T08:03:21.791Z,9.92
2022-11-05T08:05:52.639Z,9.99
2022-11-05T08:08:24.706Z,10.01
2022-11-05T08:10:54.134Z,10.05
2022-11-05T08:13:23.237Z,10.05
2022-11-05T08:15:52.450Z,10.06
2022-11-05T08:18:21.304Z,10.03
2022-11-05T08:20:49.091Z,10.08
2022-11-05T08:23:16.433Z,10.10
2022-11-05T08:25:47.866Z,10.26
2022-11-05T08:28:17.506Z,10.30
2022-11-05T08:30:49.445Z,10.27
2022-11-05T08:33:19.386Z,10.39
2022-11-05T08:35:49.226Z,10.40
2022-11-05T08:38:19.748Z,10.41
2022-11-05T08:40:55.566Z,10.35
2022-11-05T08:43:23.925Z,10.28
2022-11-05T08:45:53.288Z,10.47
2022-11-05T08:48:22.964Z,10.48
2022-11-05T08:50:50.193Z,10.56
2022-11-05T08:53:18.733Z,10.58
2022-11-05T08:55:48.524Z,10.45
2022-11-05T08:58:20.747Z,10.59
2022-11-05T09:00:50.741Z,10.56
2022-11-05T09:03:19.878Z,10.70
2022-11-05T09:05:47.506Z,10.69
2022-11-05T09:08:17.211Z,10.67
2022-11-05T09:10:46.824Z,10.66
2022-11-05T09:13:19.757Z,10.57
2022-11-05T09:15:50.557Z,10.68
2022-11-05T09:18:20.014Z,10.61
2022-11-05T09:20:49.803Z,10.63
2022-11-05T09:23:19.605Z,10.73
2022-11-05T09:25:48.439Z,10.85
2022-11-05T09:28:22.952Z,10.80
2022-11-05T09:30:54.772Z,10.84
2022-11-05T09:33:25.170Z,10.75
2022-11-05T09:35:53.986Z,10.79
2022-11-05T09:38:23.599Z,10.81
2022-11-05T09:41:20.405Z,10.96
2022-11-05T09:44:03.950Z,10.85
2022-11-05T09:47:02.243Z,10.89
2022-11-05T09:49:51.238Z,10.94
2022-11-05T09:52:22.645Z,10.92
2022-11-05T09:54:50.986Z,10.87
2022-11-05T09:57:22.345Z,11.04
2022-11-05T09:59:54.126Z,11.16
2022-11-05T10:02:25.805Z,11.25
2022-11-05T10:05:20.010Z,11.25
2022-11-05T10:07:51.975Z,11.39
2022-11-05T10:10:33.267Z,11.43
2022-11-05T10:13:14.438Z,11.52
2022-11-05T10:16:20.325Z,11.68
2022-11-05T10:19:24.724Z,11.70
2022-11-05T10:22:20.041Z,11.61
2022-11-05T10:24:51.218Z,11.68
2022-11-05T10:27:40.272Z,11.53
2022-11-05T10:30:31.070Z,11.42
2022-11-05T10:33:05.756Z,11.42
2022-11-05T10:35:36.345Z,11.52
2022-11-05T10:38:03.957Z,11.72
2022-11-05T10:41:07.353Z,11.92
2022-11-05T10:43:51.875Z,11.92
2022-11-05T10:46:31.749Z,12.00
2022-11-05T10:49:10.785Z,12.05
2022-11-05T10:52:03.601Z,12.04
2022-11-05T10:54:45.880Z,11.84
2022-11-05T11:01:12.415Z,11.86
2022-11-05T11:03:54.376Z,11.85
2022-11-05T11:06:47.806Z,11.82
2022-11-05T11:09:28.907Z,11.80
2022-11-05T11:12:02.067Z,11.89
2022-11-05T11:14:29.954Z,11.96
2022-11-05T11:17:30.102Z,12.00
2022-11-05T11:20:30.686Z,12.06
2022-11-05T11:23:06.989Z,12.20
2022-11-05T11:26:04.049Z,12.40
2022-11-05T11:28:48.829Z,12.42
2022-11-05T11:31:22.061Z,12.35
2022-11-05T11:34:12.535Z,12.22
2022-11-05T11:36:47.400Z,12.44
2022-11-05T11:39:21.366Z,12.58
2022-11-05T11:41:57.223Z,12.68
2022-11-05T11:44:31.540Z,12.66
2022-11-05T11:47:04.689Z,12.83
2022-11-05T11:49:52.600Z,12.94
2022-11-05T11:52:34.662Z,13.06
2022-11-05T11:55:23.253Z,13.17
2022-11-05T11:58:05.698Z,13.32
2022-11-05T12:00:41.769Z,13.35
2022-11-05T12:03:57.668Z,13.37
2022-11-05T12:06:41.584Z,13.37
2022-11-05T12:09:30.860Z,13.35
2022-11-05T12:12:06.469Z,13.15
2022-11-05T12:14:59.982Z,12.90
2022-11-05T12:17:44.575Z,12.94
2022-11-05T12:20:32.357Z,12.75
2022-11-05T12:23:35.541Z,12.73
2022-11-05T12:26:54.219Z,12.66
2022-11-05T12:29:54.578Z,12.70
2022-11-05T12:32:27.638Z,12.79
2022-11-05T12:35:18.967Z,12.80
2022-11-05T12:38:21.316Z,12.75
2022-11-05T12:41:19.173Z,12.82
2022-11-05T12:44:29.096Z,12.79
2022-11-05T12:47:21.049Z,12.72
2022-11-05T12:50:24.690Z,12.55
2022-11-05T13:02:45.580Z,12.51
2022-11-05T13:05:36.883Z,12.42
2022-11-05T13:17:50.861Z,12.30
2022-11-05T13:20:26.258Z,12.37
2022-11-05T13:23:13.243Z,12.38
2022-11-05T13:25:47.280Z,12.36
2022-11-05T13:28:14.717Z,12.34
2022-11-05T13:30:48.111Z,12.19
2022-11-05T13:33:20.240Z,12.23
2022-11-05T13:36:50.227Z,12.27
2022-11-05T13:39:25.203Z,12.22
2022-11-05T13:42:09.230Z,12.26
2022-11-05T13:44:54.578Z,12.23
2022-11-05T13:48:07.424Z,12.27
2022-11-05T13:50:49.689Z,12.06
2022-11-05T13:53:28.919Z,12.24
2022-11-05T13:56:04.012Z,12.35
2022-11-05T13:59:17.284Z,12.43
2022-11-05T14:01:53.673Z,12.51
2022-11-05T14:04:49.996Z,12.59
2022-11-05T14:07:22.823Z,12.52
2022-11-05T14:10:30.705Z,12.67
2022-11-05T14:13:00.497Z,12.71
2022-11-05T14:15:33.988Z,12.84
2022-11-05T14:18:04.821Z,12.77
2022-11-05T14:20:48.356Z,12.86
2022-11-05T14:23:39.913Z,13.02
2022-11-05T14:26:21.889Z,12.99
2022-11-05T14:29:17.847Z,12.91
2022-11-05T14:32:08.993Z,13.00
2022-11-05T14:35:08.798Z,12.91
2022-11-05T14:37:52.901Z,12.67
2022-11-05T14:40:43.291Z,12.62
2022-11-05T14:43:34.155Z,12.46
2022-11-05T14:46:08.838Z,12.39
2022-11-05T14:49:13.355Z,12.34
2022-11-05T14:51:50.029Z,12.03
2022-11-05T14:54:28.650Z,12.09
2022-11-05T14:56:59.161Z,12.07
2022-11-05T14:59:53.007Z,12.10
2022-11-05T15:02:28.509Z,12.06
2022-11-05T15:05:51.052Z,12.01
2022-11-05T15:08:36.738Z,11.92
2022-11-05T15:11:18.336Z,11.79
2022-11-05T15:14:02.759Z,11.82
2022-11-05T15:16:41.869Z,11.84
2022-11-05T15:19:27.788Z,11.86
2022-11-05T15:21:59.804Z,11.71
2022-11-05T15:24:29.952Z,11.73
2022-11-05T15:27:41.031Z,11.83
2022-11-05T15:30:26.459Z,11.65
2022-11-05T15:32:53.463Z,11.63
2022-11-05T15:35:27.681Z,11.62
2022-11-05T15:38:01.417Z,11.60
2022-11-05T15:40:34.651Z,11.75
2022-11-05T15:43:23.323Z,11.74
2022-11-05T15:46:30.240Z,11.62
2022-11-05T15:49:19.124Z,11.59
2022-11-05T15:51:48.211Z,11.55
2022-11-05T15:54:36.051Z,11.49
2022-11-05T15:57:04.893Z,11.53
2022-11-05T15:59:35.737Z,11.44
2022-11-05T16:02:29.187Z,11.50
2022-11-05T16:04:59.063Z,11.52
2022-11-05T16:07:29.046Z,11.51
2022-11-05T16:10:28.598Z,11.50
2022-11-05T16:13:34.741Z,11.43
2022-11-05T16:16:23.891Z,11.40
2022-11-05T16:18:51.984Z,11.24
2022-11-05T16:21:25.651Z,11.16
2022-11-05T16:23:57.671Z,11.08
2022-11-05T16:27:01.720Z,11.21
2022-11-05T16:29:39.406Z,11.15
2022-11-05T16:32:31.354Z,11.13
2022-11-05T16:35:03.981Z,11.13
2022-11-05T16:37:50.710Z,11.11
2022-11-05T16:40:33.882Z,11.04
2022-11-05T16:43:17.709Z,10.98
2022-11-05T16:45:45.466Z,10.92
2022-11-05T16:48:15.500Z,10.89
2022-11-05T16:50:45.623Z,10.87
2022-11-05T16:53:15.139Z,10.87
2022-11-05T16:55:46.981Z,10.76
2022-11-05T16:58:24.969Z,10.80
2022-11-05T17:00:58.546Z,10.65
2022-11-05T17:03:25.975Z,10.56
2022-11-05T17:05:55.260Z,10.49
2022-11-05T17:08:22.444Z,10.60
2022-11-05T17:10:53.200Z,10.42
2022-11-05T17:13:21.985Z,10.36
2022-11-05T17:15:51.910Z,10.39
2022-11-05T17:18:22.361Z,10.32
2022-11-05T17:20:53.322Z,10.25
2022-11-05T17:23:24.473Z,10.19
2022-11-05T17:25:54.892Z,10.11
2022-11-05T17:28:27.296Z,10.15
2022-11-05T17:30:57.835Z,10.05
2022-11-05T17:33:24.850Z,9.99
2022-11-05T17:35:53.631Z,9.99
2022-11-05T17:38:22.304Z,9.94
2022-11-05T17:40:51.597Z,9.97
2022-11-05T17:43:23.029Z,9.95
2022-11-05T17:45:54.163Z,9.99
2022-11-05T17:48:22.036Z,9.94
2022-11-05T17:50:55.375Z,9.83
2022-11-05T17:53:23.921Z,9.92
2022-11-05T17:55:54.991Z,9.87
2022-11-05T17:58:24.051Z,9.72
2022-11-05T18:00:54.230Z,9.69
2022-11-05T18:03:22.554Z,9.61
2022-11-05T18:05:53.746Z,9.66
2022-11-05T18:08:27.691Z,9.62
2022-11-05T18:10:57.371Z,9.56
2022-11-05T18:13:28.615Z,9.65
2022-11-05T18:15:58.245Z,9.61
2022-11-05T18:18:26.832Z,9.56
2022-11-05T18:21:00.492Z,9.61
2022-11-05T18:23:27.591Z,9.61
2022-11-05T18:25:55.134Z,9.60
2022-11-05T18:28:26.728Z,9.58
2022-11-05T18:31:01.487Z,9.50
2022-11-05T18:33:31.716Z,9.62
2022-11-05T18:36:01.503Z,9.67
2022-11-05T18:38:32.578Z,9.70
2022-11-05T18:41:07.263Z,9.61
2022-11-05T18:43:36.569Z,9.44
2022-11-05T18:46:06.908Z,9.42
2022-11-05T18:48:37.359Z,9.47
2022-11-05T18:51:22.607Z,9.38
2022-11-05T18:53:51.264Z,9.38
2022-11-05T18:56:24.671Z,9.32
2022-11-05T18:59:21.804Z,9.38
2022-11-05T19:01:45.335Z,9.32
2022-11-05T19:04:18.023Z,9.30
2022-11-05T19:06:52.668Z,9.28
2022-11-05T19:09:23.340Z,9.18
2022-11-05T19:11:55.909Z,9.22
2022-11-05T19:14:26.209Z,9.18
2022-11-05T19:17:15.706Z,9.20
2022-11-05T19:19:50.749Z,9.14
2022-11-05T19:22:23.943Z,9.05
2022-11-05T19:24:55.176Z,8.99
2022-11-05T19:27:28.339Z,8.85
2022-11-05T19:29:58.374Z,8.96
2022-11-05T19:32:28.028Z,8.99
2022-11-05T19:34:55.793Z,8.96
2022-11-05T19:37:24.308Z,8.89
2022-11-05T19:39:56.481Z,8.82
2022-11-05T19:42:25.968Z,8.78
2022-11-05T19:44:55.213Z,8.69
2022-11-05T19:47:26.125Z,8.71
2022-11-05T19:49:56.478Z,8.56
2022-11-05T19:52:28.773Z,8.56
2022-11-05T19:55:03.702Z,8.59
2022-11-05T19:57:36.977Z,8.49
2022-11-05T20:00:06.540Z,8.44
2022-11-05T20:02:36.128Z,8.48
2022-11-05T20:05:04.356Z,8.44
2022-11-05T20:07:32.811Z,8.42
2022-11-05T20:10:01.170Z,8.48
2022-11-05T20:12:34.570Z,8.42
2022-11-05T20:15:05.060Z,8.40
2022-11-05T20:17:35.908Z,8.35
2022-11-05T20:20:05.045Z,8.34
2022-11-05T20:22:35.850Z,8.24
2022-11-05T20:25:07.515Z,8.29
2022-11-05T20:27:35.479Z,8.36
2022-11-05T20:30:07.333Z,8.39
2022-11-05T20:32:35.041Z,8.34
2022-11-05T20:35:05.930Z,8.22
2022-11-05T20:37:34.475Z,8.29
2022-11-05T20:40:01.992Z,8.22
2022-11-05T20:42:31.521Z,8.22
2022-11-05T20:45:01.956Z,8.20
2022-11-05T20:47:30.255Z,8.16
2022-11-05T20:50:00.947Z,8.12
2022-11-05T20:52:30.543Z,8.07
2022-11-05T20:55:00.070Z,8.21
2022-11-05T20:57:32.804Z,8.29
2022-11-05T21:00:03.084Z,8.19
2022-11-05T21:02:37.080Z,8.18
2022-11-05T21:05:08.667Z,8.19
2022-11-05T21:07:51.428Z,8.11
2022-11-05T21:10:21.732Z,8.11
2022-11-05T21:12:51.971Z,8.16
2022-11-05T21:15:24.194Z,8.14
2022-11-05T21:17:52.378Z,8.16
2022-11-05T21:20:22.343Z,8.21
2022-11-05T21:22:53.637Z,8.19
2022-11-05T21:25:25.445Z,8.26
2022-11-05T21:27:55.668Z,8.34
2022-11-05T21:30:25.124Z,8.32
2022-11-05T21:32:54.530Z,8.34
2022-11-05T21:35:22.116Z,8.34
2022-11-05T21:37:51.842Z,8.33
2022-11-05T21:40:19.075Z,8.25
2022-11-05T21:42:46.685Z,8.17
2022-11-05T21:45:16.602Z,8.23
2022-11-05T21:47:46.920Z,8.35
2022-11-05T21:50:21.727Z,8.39
2022-11-05T21:53:10.259Z,8.49
2022-11-05T21:56:00.714Z,8.53
2022-11-05T21:58:48.561Z,8.52
2022-11-05T22:01:17.442Z,8.52
2022-11-05T22:03:46.061Z,8.59
2022-11-05T22:06:17.824Z,8.59
2022-11-05T22:08:47.194Z,8.63
2022-11-05T22:11:14.353Z,8.60
2022-11-05T22:13:42.609Z,8.62
2022-11-05T22:16:15.986Z,8.67
2022-11-05T22:18:47.175Z,8.70
2022-11-05T22:21:19.944Z,8.75
2022-11-05T22:23:47.867Z,8.77
2022-11-05T22:26:18.021Z,8.77
2022-11-05T22:28:45.461Z,8.77
2022-11-05T22:31:18.016Z,8.84
2022-11-05T22:33:52.321Z,8.81
2022-11-05T22:36:20.713Z,8.80
2022-11-05T22:38:52.545Z,8.74
2022-11-05T22:41:23.498Z,8.74
2022-11-05T22:43:51.381Z,8.76
2022-11-05T22:46:26.405Z,8.82
2022-11-05T22:48:58.711Z,8.79
2022-11-05T22:51:35.056Z,8.75
2022-11-05T22:54:09.704Z,8.67
2022-11-05T22:56:41.953Z,8.67
2022-11-05T22:59:13.808Z,8.72
2022-11-05T23:01:45.561Z,8.74
2022-11-05T23:04:19.100Z,8.66
2022-11-05T23:07:08.215Z,8.79
2022-11-05T23:09:59.214Z,8.73
2022-11-05T23:12:40.358Z,8.78
2022-11-05T23:15:43.138Z,8.74
2022-11-05T23:18:36.082Z,8.75
2022-11-05T23:21:42.546Z,8.79
2022-11-05T23:24:16.139Z,8.76
2022-11-05T23:26:50.784Z,8.76
2022-11-05T23:29:24.250Z,8.70
2022-11-05T23:32:12.094Z,8.67
2022-11-05T23:34:39.928Z,8.58
2022-11-05T23:37:26.599Z,8.61
2022-11-05T23:39:54.265Z,8.61
2022-11-05T23:42:42.714Z,8.58
2022-11-05T23:45:30.217Z,8.59
2022-11-05T23:48:17.499Z,8.61
2022-11-05T23:51:12.252Z,8.61
2022-11-05T23:53:45.491Z,8.61
2022-11-05T23:56:16.571Z,8.62
2022-11-05T23:58:47.310Z,8.60
